sensor_id;sensor_type;location;lat;lon;timestamp;P1;durP1;ratioP1;P2;durP2;ratioP2
15228;SDS011;7717;47.792;12.076;2022-09-03T00:01:15;5.23;;;4.73;;
15228;SDS011;7717;47.792;12.076;2022-09-03T00:03:43;5.73;;;4.77;;
15228;SDS011;7717;47.792;12.076;2022-09-03T00:14:14;5.20;;;4.70;;
15228;SDS011;7717;47.792;12.076;2022-09-03T00:16:47;5.63;;;4.17;;
15228;SDS011;7717;47.792;12.076;2022-09-03T00:19:17;4.33;;;4.00;;
15228;SDS011;7717;47.792;12.076;2022-09-03T00:21:51;3.47;;;3.17;;
15228;SDS011;7717;47.792;12.076;2022-09-03T00:24:18;3.97;;;3.67;;
15228;SDS011;7717;47.792;12.076;2022-09-03T00:26:52;4.73;;;4.27;;
15228;SDS011;7717;47.792;12.076;2022-09-03T00:29:20;4.13;;;3.67;;
15228;SDS011;7717;47.792;12.076;2022-09-03T00:31:49;4.17;;;3.23;;
15228;SDS011;7717;47.792;12.076;2022-09-03T00:34:20;6.00;;;3.37;;
15228;SDS011;7717;47.792;12.076;2022-09-03T00:36:47;4.17;;;3.77;;
15228;SDS011;7717;47.792;12.076;2022-09-03T00:39:17;4.60;;;3.50;;
15228;SDS011;7717;47.792;12.076;2022-09-03T00:41:47;3.47;;;3.27;;
15228;SDS011;7717;47.792;12.076;2022-09-03T00:44:31;4.53;;;3.80;;
15228;SDS011;7717;47.792;12.076;2022-09-03T00:47:11;4.50;;;4.10;;
15228;SDS011;7717;47.792;12.076;2022-09-03T01:00:16;3.80;;;3.50;;
15228;SDS011;7717;47.792;12.076;2022-09-03T01:13:45;3.80;;;3.60;;
15228;SDS011;7717;47.792;12.076;2022-09-03T01:16:29;4.17;;;3.87;;
15228;SDS011;7717;47.792;12.076;2022-09-03T01:21:32;3.90;;;3.60;;
15228;SDS011;7717;47.792;12.076;2022-09-03T01:31:38;4.20;;;3.80;;
15228;SDS011;7717;47.792;12.076;2022-09-03T01:36:59;4.10;;;3.80;;
15228;SDS011;7717;47.792;12.076;2022-09-03T01:40:15;4.17;;;3.60;;
15228;SDS011;7717;47.792;12.076;2022-09-03T01:42:18;3.90;;;3.60;;
15228;SDS011;7717;47.792;12.076;2022-09-03T01:49:54;3.53;;;3.23;;
15228;SDS011;7717;47.792;12.076;2022-09-03T01:52:37;3.50;;;3.30;;
15228;SDS011;7717;47.792;12.076;2022-09-03T02:00:00;4.00;;;3.60;;
15228;SDS011;7717;47.792;12.076;2022-09-03T02:02:28;3.67;;;3.37;;
15228;SDS011;7717;47.792;12.076;2022-09-03T02:07:19;3.50;;;3.20;;
15228;SDS011;7717;47.792;12.076;2022-09-03T02:09:46;3.53;;;3.30;;
15228;SDS011;7717;47.792;12.076;2022-09-03T02:12:13;3.97;;;3.77;;
15228;SDS011;7717;47.792;12.076;2022-09-03T02:14:39;3.53;;;3.23;;
15228;SDS011;7717;47.792;12.076;2022-09-03T02:17:04;3.40;;;3.20;;
15228;SDS011;7717;47.792;12.076;2022-09-03T02:19:30;4.00;;;3.60;;
15228;SDS011;7717;47.792;12.076;2022-09-03T02:21:56;3.53;;;3.20;;
15228;SDS011;7717;47.792;12.076;2022-09-03T02:24:25;3.53;;;3.33;;
15228;SDS011;7717;47.792;12.076;2022-09-03T02:26:52;4.50;;;3.80;;
15228;SDS011;7717;47.792;12.076;2022-09-03T02:29:17;4.67;;;4.27;;
15228;SDS011;7717;47.792;12.076;2022-09-03T02:31:43;3.90;;;3.60;;
15228;SDS011;7717;47.792;12.076;2022-09-03T02:34:08;4.73;;;3.90;;
15228;SDS011;7717;47.792;12.076;2022-09-03T02:36:35;4.70;;;4.30;;
15228;SDS011;7717;47.792;12.076;2022-09-03T02:39:01;4.07;;;3.77;;
15228;SDS011;7717;47.792;12.076;2022-09-03T02:41:26;3.90;;;3.60;;
15228;SDS011;7717;47.792;12.076;2022-09-03T02:46:20;4.37;;;4.07;;
15228;SDS011;7717;47.792;12.076;2022-09-03T02:48:45;4.03;;;3.73;;
15228;SDS011;7717;47.792;12.076;2022-09-03T02:51:10;4.47;;;4.07;;
15228;SDS011;7717;47.792;12.076;2022-09-03T02:53:35;3.90;;;3.60;;
15228;SDS011;7717;47.792;12.076;2022-09-03T02:56:01;3.47;;;3.17;;
15228;SDS011;7717;47.792;12.076;2022-09-03T02:58:26;3.53;;;3.23;;
15228;SDS011;7717;47.792;12.076;2022-09-03T03:00:52;4.30;;;4.00;;
15228;SDS011;7717;47.792;12.076;2022-09-03T03:03:17;4.30;;;4.00;;
15228;SDS011;7717;47.792;12.076;2022-09-03T03:08:12;3.83;;;3.53;;
15228;SDS011;7717;47.792;12.076;2022-09-03T03:10:39;3.50;;;3.30;;
15228;SDS011;7717;47.792;12.076;2022-09-03T03:13:04;3.87;;;3.57;;
15228;SDS011;7717;47.792;12.076;2022-09-03T03:15:30;3.60;;;3.30;;
15228;SDS011;7717;47.792;12.076;2022-09-03T03:17:55;3.77;;;3.47;;
15228;SDS011;7717;47.792;12.076;2022-09-03T03:20:22;5.87;;;3.53;;
15228;SDS011;7717;47.792;12.076;2022-09-03T03:22:48;3.70;;;3.40;;
15228;SDS011;7717;47.792;12.076;2022-09-03T03:25:13;3.43;;;3.13;;
15228;SDS011;7717;47.792;12.076;2022-09-03T03:27:38;3.70;;;3.40;;
15228;SDS011;7717;47.792;12.076;2022-09-03T03:30:05;3.43;;;3.20;;
15228;SDS011;7717;47.792;12.076;2022-09-03T03:32:33;4.20;;;3.80;;
15228;SDS011;7717;47.792;12.076;2022-09-03T03:34:59;3.93;;;3.63;;
15228;SDS011;7717;47.792;12.076;2022-09-03T03:37:24;3.93;;;3.63;;
15228;SDS011;7717;47.792;12.076;2022-09-03T03:39:49;3.83;;;3.47;;
15228;SDS011;7717;47.792;12.076;2022-09-03T03:42:14;4.17;;;3.77;;
15228;SDS011;7717;47.792;12.076;2022-09-03T03:44:40;5.67;;;3.57;;
15228;SDS011;7717;47.792;12.076;2022-09-03T03:47:07;4.47;;;3.97;;
15228;SDS011;7717;47.792;12.076;2022-09-03T03:49:33;4.30;;;4.00;;
15228;SDS011;7717;47.792;12.076;2022-09-03T03:51:58;4.33;;;4.03;;
15228;SDS011;7717;47.792;12.076;2022-09-03T03:54:23;3.97;;;3.67;;
15228;SDS011;7717;47.792;12.076;2022-09-03T03:56:49;4.43;;;4.13;;
15228;SDS011;7717;47.792;12.076;2022-09-03T03:59:14;4.10;;;3.60;;
15228;SDS011;7717;47.792;12.076;2022-09-03T04:01:39;4.60;;;4.20;;
15228;SDS011;7717;47.792;12.076;2022-09-03T04:04:05;5.33;;;4.20;;
15228;SDS011;7717;47.792;12.076;2022-09-03T04:06:30;4.40;;;4.00;;
15228;SDS011;7717;47.792;12.076;2022-09-03T04:08:55;5.03;;;4.63;;
15228;SDS011;7717;47.792;12.076;2022-09-03T04:11:21;6.20;;;5.70;;
15228;SDS011;7717;47.792;12.076;2022-09-03T04:13:47;5.10;;;4.70;;
15228;SDS011;7717;47.792;12.076;2022-09-03T04:16:16;5.77;;;4.20;;
15228;SDS011;7717;47.792;12.076;2022-09-03T04:18:42;4.57;;;4.13;;
15228;SDS011;7717;47.792;12.076;2022-09-03T04:21:08;4.80;;;4.40;;
15228;SDS011;7717;47.792;12.076;2022-09-03T04:23:36;5.23;;;4.83;;
15228;SDS011;7717;47.792;12.076;2022-09-03T04:26:02;4.40;;;4.10;;
15228;SDS011;7717;47.792;12.076;2022-09-03T04:28:28;4.83;;;4.00;;
15228;SDS011;7717;47.792;12.076;2022-09-03T04:30:53;4.20;;;3.90;;
15228;SDS011;7717;47.792;12.076;2022-09-03T04:33:18;5.33;;;3.90;;
15228;SDS011;7717;47.792;12.076;2022-09-03T04:35:44;4.47;;;4.17;;
15228;SDS011;7717;47.792;12.076;2022-09-03T04:38:09;4.90;;;4.50;;
15228;SDS011;7717;47.792;12.076;2022-09-03T04:40:35;4.27;;;3.97;;
15228;SDS011;7717;47.792;12.076;2022-09-03T04:43:00;5.67;;;4.23;;
15228;SDS011;7717;47.792;12.076;2022-09-03T04:45:26;4.57;;;4.00;;
15228;SDS011;7717;47.792;12.076;2022-09-03T04:48:01;3.87;;;3.57;;
15228;SDS011;7717;47.792;12.076;2022-09-03T04:50:27;4.33;;;4.03;;
15228;SDS011;7717;47.792;12.076;2022-09-03T04:52:54;4.27;;;3.90;;
15228;SDS011;7717;47.792;12.076;2022-09-03T04:55:22;3.93;;;3.63;;
15228;SDS011;7717;47.792;12.076;2022-09-03T04:57:47;4.57;;;4.27;;
15228;SDS011;7717;47.792;12.076;2022-09-03T05:00:13;4.93;;;4.40;;
15228;SDS011;7717;47.792;12.076;2022-09-03T05:02:42;5.53;;;4.77;;
15228;SDS011;7717;47.792;12.076;2022-09-03T05:05:07;6.47;;;4.33;;
15228;SDS011;7717;47.792;12.076;2022-09-03T05:07:32;4.40;;;4.10;;
15228;SDS011;7717;47.792;12.076;2022-09-03T05:10:12;5.20;;;4.70;;
15228;SDS011;7717;47.792;12.076;2022-09-03T05:12:44;4.60;;;4.30;;
15228;SDS011;7717;47.792;12.076;2022-09-03T05:15:09;4.43;;;4.13;;
15228;SDS011;7717;47.792;12.076;2022-09-03T05:17:34;4.53;;;4.17;;
15228;SDS011;7717;47.792;12.076;2022-09-03T05:20:02;4.43;;;4.07;;
15228;SDS011;7717;47.792;12.076;2022-09-03T05:22:28;4.90;;;4.40;;
15228;SDS011;7717;47.792;12.076;2022-09-03T05:24:53;4.43;;;4.10;;
15228;SDS011;7717;47.792;12.076;2022-09-03T05:27:20;4.43;;;3.97;;
15228;SDS011;7717;47.792;12.076;2022-09-03T05:29:45;4.60;;;4.20;;
15228;SDS011;7717;47.792;12.076;2022-09-03T05:32:11;7.60;;;4.70;;
15228;SDS011;7717;47.792;12.076;2022-09-03T05:34:41;5.00;;;4.60;;
15228;SDS011;7717;47.792;12.076;2022-09-03T05:37:06;5.00;;;4.50;;
15228;SDS011;7717;47.792;12.076;2022-09-03T05:39:31;5.43;;;4.93;;
15228;SDS011;7717;47.792;12.076;2022-09-03T05:41:57;5.13;;;4.83;;
15228;SDS011;7717;47.792;12.076;2022-09-03T05:44:22;4.93;;;4.37;;
15228;SDS011;7717;47.792;12.076;2022-09-03T05:46:48;4.53;;;4.13;;
15228;SDS011;7717;47.792;12.076;2022-09-03T05:49:15;4.47;;;4.17;;
15228;SDS011;7717;47.792;12.076;2022-09-03T05:51:41;4.83;;;4.43;;
15228;SDS011;7717;47.792;12.076;2022-09-03T05:54:06;4.53;;;4.13;;
15228;SDS011;7717;47.792;12.076;2022-09-03T05:56:32;5.07;;;4.57;;
15228;SDS011;7717;47.792;12.076;2022-09-03T05:59:00;5.20;;;4.80;;
15228;SDS011;7717;47.792;12.076;2022-09-03T06:01:32;4.80;;;4.40;;
15228;SDS011;7717;47.792;12.076;2022-09-03T06:04:02;5.20;;;4.80;;
15228;SDS011;7717;47.792;12.076;2022-09-03T06:06:28;5.63;;;5.13;;
15228;SDS011;7717;47.792;12.076;2022-09-03T06:08:54;5.70;;;5.30;;
15228;SDS011;7717;47.792;12.076;2022-09-03T06:11:20;5.10;;;4.63;;
15228;SDS011;7717;47.792;12.076;2022-09-03T06:13:48;5.77;;;5.27;;
15228;SDS011;7717;47.792;12.076;2022-09-03T06:16:13;4.93;;;4.53;;
15228;SDS011;7717;47.792;12.076;2022-09-03T06:18:39;4.90;;;4.23;;
15228;SDS011;7717;47.792;12.076;2022-09-03T06:21:05;4.63;;;4.33;;
15228;SDS011;7717;47.792;12.076;2022-09-03T06:23:31;4.87;;;4.37;;
15228;SDS011;7717;47.792;12.076;2022-09-03T06:28:34;5.27;;;4.77;;
15228;SDS011;7717;47.792;12.076;2022-09-03T06:31:04;4.57;;;4.27;;
15228;SDS011;7717;47.792;12.076;2022-09-03T06:33:30;5.00;;;4.60;;
15228;SDS011;7717;47.792;12.076;2022-09-03T06:35:56;7.03;;;4.73;;
15228;SDS011;7717;47.792;12.076;2022-09-03T06:38:23;4.90;;;4.40;;
15228;SDS011;7717;47.792;12.076;2022-09-03T06:40:55;5.13;;;4.70;;
15228;SDS011;7717;47.792;12.076;2022-09-03T06:43:21;5.27;;;4.23;;
15228;SDS011;7717;47.792;12.076;2022-09-03T06:45:58;4.47;;;3.87;;
15228;SDS011;7717;47.792;12.076;2022-09-03T06:48:24;5.00;;;4.50;;
15228;SDS011;7717;47.792;12.076;2022-09-03T06:50:56;3.87;;;3.63;;
15228;SDS011;7717;47.792;12.076;2022-09-03T06:53:23;4.73;;;4.20;;
15228;SDS011;7717;47.792;12.076;2022-09-03T06:55:52;4.53;;;4.00;;
15228;SDS011;7717;47.792;12.076;2022-09-03T06:58:17;4.47;;;4.10;;
15228;SDS011;7717;47.792;12.076;2022-09-03T07:00:43;4.43;;;4.03;;
15228;SDS011;7717;47.792;12.076;2022-09-03T07:03:08;4.20;;;3.80;;
15228;SDS011;7717;47.792;12.076;2022-09-03T07:05:33;5.20;;;3.80;;
15228;SDS011;7717;47.792;12.076;2022-09-03T07:07:59;6.27;;;3.57;;
15228;SDS011;7717;47.792;12.076;2022-09-03T07:10:24;6.40;;;3.40;;
15228;SDS011;7717;47.792;12.076;2022-09-03T07:12:52;3.93;;;3.57;;
15228;SDS011;7717;47.792;12.076;2022-09-03T07:15:17;3.90;;;3.60;;
15228;SDS011;7717;47.792;12.076;2022-09-03T07:17:43;3.83;;;3.53;;
15228;SDS011;7717;47.792;12.076;2022-09-03T07:20:09;3.47;;;3.17;;
15228;SDS011;7717;47.792;12.076;2022-09-03T07:22:34;3.57;;;3.27;;
15228;SDS011;7717;47.792;12.076;2022-09-03T07:24:59;3.40;;;3.20;;
15228;SDS011;7717;47.792;12.076;2022-09-03T07:27:25;3.33;;;2.97;;
15228;SDS011;7717;47.792;12.076;2022-09-03T07:29:51;3.07;;;2.60;;
15228;SDS011;7717;47.792;12.076;2022-09-03T07:32:16;4.23;;;3.00;;
15228;SDS011;7717;47.792;12.076;2022-09-03T07:34:41;2.80;;;2.60;;
15228;SDS011;7717;47.792;12.076;2022-09-03T07:37:06;3.43;;;3.00;;
15228;SDS011;7717;47.792;12.076;2022-09-03T07:39:32;3.40;;;3.00;;
15228;SDS011;7717;47.792;12.076;2022-09-03T07:41:57;2.73;;;2.53;;
15228;SDS011;7717;47.792;12.076;2022-09-03T07:44:23;3.23;;;3.00;;
15228;SDS011;7717;47.792;12.076;2022-09-03T07:46:49;3.00;;;2.80;;
15228;SDS011;7717;47.792;12.076;2022-09-03T07:49:14;2.70;;;2.60;;
15228;SDS011;7717;47.792;12.076;2022-09-03T07:51:39;5.33;;;3.13;;
15228;SDS011;7717;47.792;12.076;2022-09-03T07:54:06;4.30;;;2.93;;
15228;SDS011;7717;47.792;12.076;2022-09-03T07:56:32;3.63;;;3.00;;
15228;SDS011;7717;47.792;12.076;2022-09-03T07:58:59;3.13;;;2.83;;
15228;SDS011;7717;47.792;12.076;2022-09-03T08:01:25;3.40;;;3.10;;
15228;SDS011;7717;47.792;12.076;2022-09-03T08:03:52;3.20;;;3.00;;
15228;SDS011;7717;47.792;12.076;2022-09-03T08:06:18;3.47;;;2.97;;
15228;SDS011;7717;47.792;12.076;2022-09-03T08:08:44;3.37;;;2.60;;
15228;SDS011;7717;47.792;12.076;2022-09-03T08:11:13;4.30;;;2.83;;
15228;SDS011;7717;47.792;12.076;2022-09-03T08:13:46;2.80;;;2.60;;
15228;SDS011;7717;47.792;12.076;2022-09-03T08:16:13;2.80;;;2.60;;
15228;SDS011;7717;47.792;12.076;2022-09-03T08:18:39;2.60;;;2.40;;
15228;SDS011;7717;47.792;12.076;2022-09-03T08:21:08;2.83;;;2.63;;
15228;SDS011;7717;47.792;12.076;2022-09-03T08:23:37;3.17;;;2.77;;
15228;SDS011;7717;47.792;12.076;2022-09-03T08:26:03;2.73;;;2.53;;
15228;SDS011;7717;47.792;12.076;2022-09-03T08:28:28;3.13;;;2.77;;
15228;SDS011;7717;47.792;12.076;2022-09-03T08:30:54;2.90;;;2.70;;
15228;SDS011;7717;47.792;12.076;2022-09-03T08:33:19;3.13;;;2.63;;
15228;SDS011;7717;47.792;12.076;2022-09-03T08:36:10;2.80;;;2.53;;
15228;SDS011;7717;47.792;12.076;2022-09-03T08:38:36;3.07;;;2.53;;
15228;SDS011;7717;47.792;12.076;2022-09-03T08:43:28;2.63;;;2.43;;
15228;SDS011;7717;47.792;12.076;2022-09-03T08:45:54;2.60;;;2.40;;
15228;SDS011;7717;47.792;12.076;2022-09-03T08:48:20;2.80;;;2.60;;
15228;SDS011;7717;47.792;12.076;2022-09-03T08:50:48;2.42;;;2.33;;
15228;SDS011;7717;47.792;12.076;2022-09-03T08:58:17;2.58;;;2.45;;
15228;SDS011;7717;47.792;12.076;2022-09-03T09:06:18;2.17;;;2.08;;
15228;SDS011;7717;47.792;12.076;2022-09-03T09:11:20;2.28;;;2.17;;
15228;SDS011;7717;47.792;12.076;2022-09-03T09:16:19;2.35;;;2.08;;
15228;SDS011;7717;47.792;12.076;2022-09-03T09:21:19;2.13;;;2.03;;
15228;SDS011;7717;47.792;12.076;2022-09-03T09:23:45;2.10;;;2.00;;
15228;SDS011;7717;47.792;12.076;2022-09-03T09:29:04;2.67;;;2.58;;
15228;SDS011;7717;47.792;12.076;2022-09-03T09:31:31;2.92;;;2.72;;
15228;SDS011;7717;47.792;12.076;2022-09-03T09:34:01;2.65;;;2.30;;
15228;SDS011;7717;47.792;12.076;2022-09-03T09:36:28;2.90;;;2.70;;
15228;SDS011;7717;47.792;12.076;2022-09-03T09:38:53;2.53;;;2.42;;
15228;SDS011;7717;47.792;12.076;2022-09-03T09:41:19;2.55;;;2.35;;
15228;SDS011;7717;47.792;12.076;2022-09-03T09:43:46;2.53;;;2.33;;
15228;SDS011;7717;47.792;12.076;2022-09-03T09:46:21;2.28;;;2.17;;
15228;SDS011;7717;47.792;12.076;2022-09-03T09:48:50;2.63;;;2.42;;
15228;SDS011;7717;47.792;12.076;2022-09-03T09:51:19;2.47;;;2.28;;
15228;SDS011;7717;47.792;12.076;2022-09-03T09:53:45;2.58;;;2.38;;
15228;SDS011;7717;47.792;12.076;2022-09-03T09:56:21;2.78;;;2.60;;
15228;SDS011;7717;47.792;12.076;2022-09-03T09:58:46;2.47;;;2.33;;
15228;SDS011;7717;47.792;12.076;2022-09-03T10:01:20;2.80;;;2.60;;
15228;SDS011;7717;47.792;12.076;2022-09-03T10:06:14;2.47;;;2.38;;
15228;SDS011;7717;47.792;12.076;2022-09-03T10:09:11;3.47;;;2.90;;
15228;SDS011;7717;47.792;12.076;2022-09-03T10:11:40;2.67;;;2.53;;
15228;SDS011;7717;47.792;12.076;2022-09-03T10:14:12;3.65;;;3.35;;
15228;SDS011;7717;47.792;12.076;2022-09-03T10:16:40;3.22;;;3.03;;
15228;SDS011;7717;47.792;12.076;2022-09-03T10:19:15;2.47;;;2.33;;
15228;SDS011;7717;47.792;12.076;2022-09-03T10:26:43;4.93;;;3.00;;
15228;SDS011;7717;47.792;12.076;2022-09-03T10:29:10;2.95;;;2.70;;
15228;SDS011;7717;47.792;12.076;2022-09-03T10:39:03;2.83;;;2.63;;
15228;SDS011;7717;47.792;12.076;2022-09-03T10:41:32;2.60;;;2.50;;
15228;SDS011;7717;47.792;12.076;2022-09-03T10:49:23;3.10;;;2.90;;
15228;SDS011;7717;47.792;12.076;2022-09-03T10:57:08;2.65;;;2.55;;
15228;SDS011;7717;47.792;12.076;2022-09-03T11:07:15;3.05;;;2.85;;
15228;SDS011;7717;47.792;12.076;2022-09-03T11:09:43;3.35;;;2.67;;
15228;SDS011;7717;47.792;12.076;2022-09-03T11:12:18;2.85;;;2.58;;
15228;SDS011;7717;47.792;12.076;2022-09-03T11:14:47;3.20;;;2.80;;
15228;SDS011;7717;47.792;12.076;2022-09-03T11:17:19;3.00;;;2.65;;
15228;SDS011;7717;47.792;12.076;2022-09-03T11:19:47;3.22;;;3.03;;
15228;SDS011;7717;47.792;12.076;2022-09-03T11:22:15;2.83;;;2.63;;
15228;SDS011;7717;47.792;12.076;2022-09-03T11:24:42;3.05;;;2.70;;
15228;SDS011;7717;47.792;12.076;2022-09-03T11:27:25;3.33;;;3.03;;
15228;SDS011;7717;47.792;12.076;2022-09-03T11:29:54;3.15;;;2.95;;
15228;SDS011;7717;47.792;12.076;2022-09-03T11:32:25;2.70;;;2.50;;
15228;SDS011;7717;47.792;12.076;2022-09-03T11:34:53;3.10;;;2.90;;
15228;SDS011;7717;47.792;12.076;2022-09-03T11:37:20;3.05;;;2.85;;
15228;SDS011;7717;47.792;12.076;2022-09-03T11:40:05;2.75;;;2.55;;
15228;SDS011;7717;47.792;12.076;2022-09-03T11:42:35;3.22;;;2.92;;
15228;SDS011;7717;47.792;12.076;2022-09-03T11:45:11;3.03;;;2.75;;
15228;SDS011;7717;47.792;12.076;2022-09-03T11:47:39;3.03;;;2.40;;
15228;SDS011;7717;47.792;12.076;2022-09-03T11:52:54;2.63;;;2.42;;
15228;SDS011;7717;47.792;12.076;2022-09-03T11:55:24;2.88;;;2.67;;
15228;SDS011;7717;47.792;12.076;2022-09-03T11:57:50;2.83;;;2.63;;
15228;SDS011;7717;47.792;12.076;2022-09-03T12:00:16;3.00;;;2.80;;
15228;SDS011;7717;47.792;12.076;2022-09-03T12:02:55;2.65;;;2.45;;
15228;SDS011;7717;47.792;12.076;2022-09-03T12:05:25;2.78;;;2.58;;
15228;SDS011;7717;47.792;12.076;2022-09-03T12:08:08;2.75;;;2.55;;
15228;SDS011;7717;47.792;12.076;2022-09-03T12:16:04;2.67;;;2.47;;
15228;SDS011;7717;47.792;12.076;2022-09-03T12:18:32;2.33;;;2.13;;
15228;SDS011;7717;47.792;12.076;2022-09-03T12:23:34;2.40;;;2.20;;
15228;SDS011;7717;47.792;12.076;2022-09-03T12:26:05;2.20;;;2.10;;
15228;SDS011;7717;47.792;12.076;2022-09-03T12:28:33;2.38;;;2.28;;
15228;SDS011;7717;47.792;12.076;2022-09-03T12:33:44;1.98;;;1.88;;
15228;SDS011;7717;47.792;12.076;2022-09-03T12:36:09;2.47;;;2.30;;
15228;SDS011;7717;47.792;12.076;2022-09-03T12:38:35;2.22;;;2.13;;
15228;SDS011;7717;47.792;12.076;2022-09-03T12:41:00;2.45;;;2.28;;
15228;SDS011;7717;47.792;12.076;2022-09-03T12:43:26;2.47;;;2.30;;
15228;SDS011;7717;47.792;12.076;2022-09-03T12:45:52;3.95;;;2.67;;
15228;SDS011;7717;47.792;12.076;2022-09-03T12:48:18;2.28;;;2.10;;
15228;SDS011;7717;47.792;12.076;2022-09-03T12:50:44;2.75;;;2.55;;
15228;SDS011;7717;47.792;12.076;2022-09-03T12:53:13;2.63;;;2.42;;
15228;SDS011;7717;47.792;12.076;2022-09-03T12:55:48;2.20;;;2.10;;
15228;SDS011;7717;47.792;12.076;2022-09-03T12:58:30;2.75;;;2.42;;
15228;SDS011;7717;47.792;12.076;2022-09-03T13:01:09;2.78;;;2.58;;
15228;SDS011;7717;47.792;12.076;2022-09-03T13:06:09;2.50;;;2.30;;
15228;SDS011;7717;47.792;12.076;2022-09-03T13:08:40;2.55;;;2.35;;
15228;SDS011;7717;47.792;12.076;2022-09-03T13:11:27;2.50;;;2.30;;
15228;SDS011;7717;47.792;12.076;2022-09-03T13:16:33;2.50;;;2.30;;
15228;SDS011;7717;47.792;12.076;2022-09-03T13:24:42;2.10;;;2.00;;
15228;SDS011;7717;47.792;12.076;2022-09-03T13:34:56;2.70;;;2.35;;
15228;SDS011;7717;47.792;12.076;2022-09-03T13:37:37;2.20;;;2.10;;
15228;SDS011;7717;47.792;12.076;2022-09-03T13:40:26;2.40;;;2.20;;
15228;SDS011;7717;47.792;12.076;2022-09-03T13:43:01;2.58;;;2.38;;
15228;SDS011;7717;47.792;12.076;2022-09-03T13:45:29;2.30;;;2.20;;
15228;SDS011;7717;47.792;12.076;2022-09-03T13:51:11;1.98;;;1.88;;
15228;SDS011;7717;47.792;12.076;2022-09-03T13:53:47;2.17;;;2.08;;
15228;SDS011;7717;47.792;12.076;2022-09-03T13:56:15;2.30;;;2.20;;
15228;SDS011;7717;47.792;12.076;2022-09-03T14:01:10;2.80;;;2.25;;
15228;SDS011;7717;47.792;12.076;2022-09-03T14:03:47;2.50;;;2.30;;
15228;SDS011;7717;47.792;12.076;2022-09-03T14:09:05;2.42;;;2.33;;
15228;SDS011;7717;47.792;12.076;2022-09-03T14:14:22;2.10;;;2.00;;
15228;SDS011;7717;47.792;12.076;2022-09-03T14:16:55;2.30;;;2.20;;
15228;SDS011;7717;47.792;12.076;2022-09-03T14:19:26;2.20;;;2.10;;
15228;SDS011;7717;47.792;12.076;2022-09-03T14:22:20;2.25;;;2.15;;
15228;SDS011;7717;47.792;12.076;2022-09-03T14:24:43;2.33;;;2.22;;
15228;SDS011;7717;47.792;12.076;2022-09-03T14:27:10;3.35;;;2.47;;
15228;SDS011;7717;47.792;12.076;2022-09-03T14:29:35;3.63;;;2.78;;
15228;SDS011;7717;47.792;12.076;2022-09-03T14:37:22;2.70;;;2.35;;
15228;SDS011;7717;47.792;12.076;2022-09-03T14:39:53;2.60;;;2.40;;
15228;SDS011;7717;47.792;12.076;2022-09-03T14:42:36;2.83;;;2.63;;
15228;SDS011;7717;47.792;12.076;2022-09-03T15:00:46;2.92;;;2.72;;
15228;SDS011;7717;47.792;12.076;2022-09-03T15:10:57;1.47;;;0.80;;
15228;SDS011;7717;47.792;12.076;2022-09-03T15:18:28;2.07;;;0.77;;
15228;SDS011;7717;47.792;12.076;2022-09-03T15:21:06;5.73;;;1.77;;
15228;SDS011;7717;47.792;12.076;2022-09-03T15:31:44;0.90;;;0.60;;
15228;SDS011;7717;47.792;12.076;2022-09-03T15:36:42;5.67;;;1.23;;
15228;SDS011;7717;47.792;12.076;2022-09-03T15:39:10;3.30;;;0.70;;
15228;SDS011;7717;47.792;12.076;2022-09-03T15:41:52;1.87;;;0.70;;
15228;SDS011;7717;47.792;12.076;2022-09-03T15:44:21;1.10;;;0.77;;
15228;SDS011;7717;47.792;12.076;2022-09-03T15:49:30;3.47;;;1.10;;
15228;SDS011;7717;47.792;12.076;2022-09-03T15:52:07;2.50;;;1.10;;
15228;SDS011;7717;47.792;12.076;2022-09-03T15:57:24;3.83;;;0.80;;
15228;SDS011;7717;47.792;12.076;2022-09-03T16:00:02;1.80;;;0.77;;
15228;SDS011;7717;47.792;12.076;2022-09-03T16:02:32;2.63;;;0.90;;
15228;SDS011;7717;47.792;12.076;2022-09-03T16:10:17;2.07;;;0.87;;
15228;SDS011;7717;47.792;12.076;2022-09-03T16:20:47;8.87;;;2.10;;
15228;SDS011;7717;47.792;12.076;2022-09-03T16:23:22;2.03;;;1.20;;
15228;SDS011;7717;47.792;12.076;2022-09-03T16:26:52;2.10;;;1.20;;
15228;SDS011;7717;47.792;12.076;2022-09-03T16:28:52;2.33;;;1.00;;
15228;SDS011;7717;47.792;12.076;2022-09-03T16:36:31;2.07;;;1.50;;
15228;SDS011;7717;47.792;12.076;2022-09-03T16:39:02;4.73;;;1.50;;
15228;SDS011;7717;47.792;12.076;2022-09-03T16:56:34;22.53;;;15.30;;
15228;SDS011;7717;47.792;12.076;2022-09-03T17:19:34;2.40;;;1.43;;
15228;SDS011;7717;47.792;12.076;2022-09-03T17:24:54;1.33;;;1.23;;
15228;SDS011;7717;47.792;12.076;2022-09-03T17:37:48;1.30;;;1.10;;
15228;SDS011;7717;47.792;12.076;2022-09-03T17:40:21;1.30;;;1.20;;
15228;SDS011;7717;47.792;12.076;2022-09-03T17:42:53;2.50;;;1.60;;
15228;SDS011;7717;47.792;12.076;2022-09-03T17:50:21;2.90;;;1.50;;
15228;SDS011;7717;47.792;12.076;2022-09-03T17:57:59;1.50;;;1.10;;
15228;SDS011;7717;47.792;12.076;2022-09-03T18:00:32;0.90;;;0.90;;
15228;SDS011;7717;47.792;12.076;2022-09-03T18:03:10;0.73;;;0.70;;
15228;SDS011;7717;47.792;12.076;2022-09-03T18:05:46;0.80;;;0.80;;
15228;SDS011;7717;47.792;12.076;2022-09-03T18:08:17;4.07;;;1.87;;
15228;SDS011;7717;47.792;12.076;2022-09-03T18:10:55;1.87;;;1.70;;
15228;SDS011;7717;47.792;12.076;2022-09-03T18:13:42;0.93;;;0.80;;
15228;SDS011;7717;47.792;12.076;2022-09-03T18:18:50;0.97;;;0.60;;
15228;SDS011;7717;47.792;12.076;2022-09-03T18:21:18;0.60;;;0.60;;
15228;SDS011;7717;47.792;12.076;2022-09-03T18:24:05;1.30;;;0.70;;
15228;SDS011;7717;47.792;12.076;2022-09-03T18:26:59;0.57;;;0.53;;
15228;SDS011;7717;47.792;12.076;2022-09-03T18:32:31;0.63;;;0.50;;
15228;SDS011;7717;47.792;12.076;2022-09-03T18:35:14;0.70;;;0.70;;
15228;SDS011;7717;47.792;12.076;2022-09-03T18:38:00;0.60;;;0.60;;
15228;SDS011;7717;47.792;12.076;2022-09-03T18:46:57;0.67;;;0.53;;
15228;SDS011;7717;47.792;12.076;2022-09-03T18:49:51;0.60;;;0.60;;
15228;SDS011;7717;47.792;12.076;2022-09-03T18:52:43;0.30;;;0.30;;
15228;SDS011;7717;47.792;12.076;2022-09-03T18:55:39;0.40;;;0.40;;
15228;SDS011;7717;47.792;12.076;2022-09-03T19:01:31;0.50;;;0.50;;
15228;SDS011;7717;47.792;12.076;2022-09-03T19:04:23;1.80;;;0.40;;
15228;SDS011;7717;47.792;12.076;2022-09-03T19:07:11;0.63;;;0.50;;
15228;SDS011;7717;47.792;12.076;2022-09-03T19:12:59;1.13;;;0.50;;
15228;SDS011;7717;47.792;12.076;2022-09-03T19:16:02;0.57;;;0.50;;
15228;SDS011;7717;47.792;12.076;2022-09-03T19:21:38;0.70;;;0.70;;
15228;SDS011;7717;47.792;12.076;2022-09-03T19:24:25;0.60;;;0.60;;
15228;SDS011;7717;47.792;12.076;2022-09-03T19:35:51;0.93;;;0.50;;
15228;SDS011;7717;47.792;12.076;2022-09-03T19:38:48;0.77;;;0.53;;
15228;SDS011;7717;47.792;12.076;2022-09-03T19:41:43;0.67;;;0.67;;
15228;SDS011;7717;47.792;12.076;2022-09-03T19:44:53;1.33;;;0.60;;
15228;SDS011;7717;47.792;12.076;2022-09-03T19:47:59;0.70;;;0.60;;
15228;SDS011;7717;47.792;12.076;2022-09-03T19:50:48;0.60;;;0.60;;
15228;SDS011;7717;47.792;12.076;2022-09-03T19:53:35;0.80;;;0.80;;
15228;SDS011;7717;47.792;12.076;2022-09-03T19:56:26;1.10;;;0.73;;
15228;SDS011;7717;47.792;12.076;2022-09-03T19:59:17;0.90;;;0.83;;
15228;SDS011;7717;47.792;12.076;2022-09-03T20:02:02;0.80;;;0.80;;
15228;SDS011;7717;47.792;12.076;2022-09-03T20:07:33;0.80;;;0.80;;
15228;SDS011;7717;47.792;12.076;2022-09-03T20:10:17;0.80;;;0.80;;
15228;SDS011;7717;47.792;12.076;2022-09-03T20:12:57;1.27;;;1.00;;
15228;SDS011;7717;47.792;12.076;2022-09-03T20:15:26;2.30;;;0.93;;
15228;SDS011;7717;47.792;12.076;2022-09-03T20:23:10;0.97;;;0.80;;
15228;SDS011;7717;47.792;12.076;2022-09-03T20:25:43;1.03;;;1.03;;
15228;SDS011;7717;47.792;12.076;2022-09-03T20:28:55;1.80;;;1.20;;
15228;SDS011;7717;47.792;12.076;2022-09-03T20:31:04;1.47;;;1.37;;
15228;SDS011;7717;47.792;12.076;2022-09-03T20:36:13;2.33;;;2.10;;
15228;SDS011;7717;47.792;12.076;2022-09-03T20:51:21;1.83;;;1.30;;